createdAt,value
2023-05-04T00:00:48.510Z,4.31
2023-05-04T00:03:18.780Z,4.34
2023-05-04T00:05:49.049Z,4.36
2023-05-04T00:08:19.249Z,4.46
2023-05-04T00:10:49.439Z,4.52
2023-05-04T00:13:19.539Z,4.52
2023-05-04T00:15:49.663Z,4.51
2023-05-04T00:18:19.899Z,4.53
2023-05-04T00:20:50.027Z,4.54
2023-05-04T00:23:20.210Z,4.51
2023-05-04T00:25:50.380Z,4.48
2023-05-04T00:28:20.494Z,4.46
2023-05-04T00:30:52.880Z,4.47
2023-05-04T00:33:23.258Z,4.45
2023-05-04T00:35:56.373Z,4.47
2023-05-04T00:38:26.585Z,4.46
2023-05-04T00:40:59.174Z,4.46
2023-05-04T00:43:29.254Z,4.56
2023-05-04T00:45:59.543Z,4.59
2023-05-04T00:48:29.712Z,4.54
2023-05-04T00:50:59.996Z,4.52
2023-05-04T00:53:31.357Z,4.46
2023-05-04T00:56:04.555Z,4.44
2023-05-04T00:58:35.000Z,4.43
2023-05-04T01:01:05.905Z,4.41
2023-05-04T01:03:36.349Z,4.39
2023-05-04T01:06:30.441Z,4.32
2023-05-04T01:09:27.017Z,4.25
2023-05-04T01:12:38.066Z,4.20
2023-05-04T01:15:12.434Z,4.15
2023-05-04T01:17:42.660Z,4.08
2023-05-04T01:20:14.186Z,4.05
2023-05-04T01:22:45.349Z,4.03
2023-05-04T01:25:16.924Z,4.00
2023-05-04T01:28:07.063Z,3.96
2023-05-04T01:30:47.030Z,3.91
2023-05-04T01:33:19.890Z,3.84
2023-05-04T01:35:50.932Z,3.81
2023-05-04T01:38:21.397Z,3.77
2023-05-04T01:40:51.526Z,3.73
2023-05-04T01:43:21.660Z,3.69
2023-05-04T01:45:52.197Z,3.67
2023-05-04T01:48:22.392Z,3.64
2023-05-04T01:50:52.542Z,3.63
2023-05-04T01:53:22.678Z,3.61
2023-05-04T01:55:52.921Z,3.61
2023-05-04T01:58:23.100Z,3.61
2023-05-04T02:00:53.235Z,3.61
2023-05-04T02:03:23.515Z,3.59
2023-05-04T02:05:53.873Z,3.58
2023-05-04T02:08:24.234Z,3.55
2023-05-04T02:10:54.360Z,3.58
2023-05-04T02:13:24.568Z,3.60
2023-05-04T02:15:54.711Z,3.60
2023-05-04T02:18:25.174Z,3.59
2023-05-04T02:20:55.309Z,3.58
2023-05-04T02:23:25.987Z,3.53
2023-05-04T02:25:56.589Z,3.50
2023-05-04T02:28:27.041Z,3.43
2023-05-04T02:30:57.196Z,3.39
2023-05-04T02:33:27.424Z,3.35
2023-05-04T02:35:57.595Z,3.30
2023-05-04T02:38:27.917Z,3.29
2023-05-04T02:40:58.551Z,3.23
2023-05-04T02:43:28.676Z,3.19
2023-05-04T02:45:58.871Z,3.13
2023-05-04T02:48:29.035Z,3.08
2023-05-04T02:50:59.635Z,3.02
2023-05-04T02:53:29.880Z,2.98
2023-05-04T02:55:59.977Z,2.94
2023-05-04T02:58:30.231Z,2.91
2023-05-04T03:01:00.523Z,2.87
2023-05-04T03:03:30.663Z,2.82
2023-05-04T03:06:01.278Z,2.78
2023-05-04T03:08:30.333Z,2.73
2023-05-04T03:10:57.657Z,2.71
2023-05-04T03:13:26.052Z,2.67
2023-05-04T03:15:54.487Z,2.65
2023-05-04T03:18:22.884Z,2.63
2023-05-04T03:20:51.450Z,2.63
2023-05-04T03:23:19.847Z,2.62
2023-05-04T03:25:48.237Z,2.60
2023-05-04T03:28:16.777Z,2.58
2023-05-04T03:30:45.037Z,2.56
2023-05-04T03:33:14.715Z,2.55
2023-05-04T03:35:44.971Z,2.53
2023-05-04T03:38:13.471Z,2.52
2023-05-04T03:40:42.024Z,2.49
2023-05-04T03:43:10.175Z,2.48
2023-05-04T03:45:39.485Z,2.47
2023-05-04T03:48:07.122Z,2.46
2023-05-04T03:50:35.960Z,2.45
2023-05-04T03:53:03.959Z,2.46
2023-05-04T03:55:32.350Z,2.46
2023-05-04T03:58:01.021Z,2.47
2023-05-04T04:00:29.125Z,2.47
2023-05-04T04:02:57.626Z,2.49
2023-05-04T04:05:26.149Z,2.50
2023-05-04T04:07:54.345Z,2.50
2023-05-04T04:10:22.954Z,2.55
2023-05-04T04:12:51.356Z,2.58
2023-05-04T04:15:19.644Z,2.62
2023-05-04T04:17:48.219Z,2.67
2023-05-04T04:20:16.632Z,2.71
2023-05-04T04:22:44.993Z,2.74
2023-05-04T04:25:13.766Z,2.79
2023-05-04T04:27:41.882Z,2.84
2023-05-04T04:30:11.275Z,2.93
2023-05-04T04:32:39.754Z,3.03
2023-05-04T04:35:09.016Z,3.22
2023-05-04T04:37:36.641Z,3.49
2023-05-04T04:40:07.747Z,3.66
2023-05-04T04:42:37.968Z,3.71
2023-05-04T04:45:08.846Z,3.84
2023-05-04T04:47:40.307Z,3.96
2023-05-04T04:50:11.642Z,4.11
2023-05-04T04:52:43.812Z,4.26
2023-05-04T04:55:11.678Z,4.47
2023-05-04T04:57:41.729Z,4.76
2023-05-04T05:00:15.515Z,4.76
2023-05-04T05:02:44.903Z,4.84
2023-05-04T05:05:14.650Z,4.85
2023-05-04T05:07:44.680Z,4.84
2023-05-04T05:10:14.573Z,4.93
2023-05-04T05:12:44.671Z,5.13
2023-05-04T05:15:14.649Z,5.24
2023-05-04T05:17:44.542Z,5.34
2023-05-04T05:20:15.481Z,5.45
2023-05-04T05:22:46.039Z,5.79
2023-05-04T05:25:15.482Z,5.86
2023-05-04T05:27:45.862Z,6.15
2023-05-04T05:30:15.984Z,6.35
2023-05-04T05:32:48.431Z,6.45
2023-05-04T05:35:20.113Z,6.62
2023-05-04T05:37:49.890Z,6.79
2023-05-04T05:40:19.868Z,6.88
2023-05-04T05:42:50.129Z,7.20
2023-05-04T05:45:18.482Z,7.21
2023-05-04T05:47:46.519Z,7.39
2023-05-04T05:50:14.888Z,7.68
2023-05-04T05:52:43.214Z,7.89
2023-05-04T05:55:12.097Z,8.18
2023-05-04T05:57:40.141Z,8.39
2023-05-04T06:00:09.576Z,8.21
2023-05-04T06:02:36.977Z,8.57
2023-05-04T06:05:05.778Z,8.71
2023-05-04T06:07:33.791Z,8.76
2023-05-04T06:10:03.096Z,8.98
2023-05-04T06:12:30.611Z,9.26
2023-05-04T06:14:59.185Z,9.24
2023-05-04T06:17:27.684Z,9.84
2023-05-04T06:19:56.231Z,10.05
2023-05-04T06:22:24.696Z,10.31
2023-05-04T06:24:56.295Z,10.63
2023-05-04T06:27:30.517Z,10.94
2023-05-04T06:30:00.592Z,10.79
2023-05-04T06:32:31.032Z,10.99
2023-05-04T06:35:02.822Z,11.45
2023-05-04T06:37:33.240Z,12.11
2023-05-04T06:40:04.210Z,12.04
2023-05-04T06:42:34.382Z,12.06
2023-05-04T06:45:04.605Z,12.58
2023-05-04T06:47:39.100Z,12.22
2023-05-04T06:50:12.155Z,12.04
2023-05-04T06:52:46.497Z,12.39
2023-05-04T06:55:15.629Z,13.32
2023-05-04T06:57:43.879Z,13.69
2023-05-04T07:00:14.907Z,14.22
2023-05-04T07:02:47.206Z,14.48
2023-05-04T07:05:14.776Z,14.00
2023-05-04T07:07:44.517Z,13.37
2023-05-04T07:10:15.380Z,13.95
2023-05-04T07:12:46.065Z,13.97
2023-05-04T07:15:15.475Z,14.49
2023-05-04T07:17:47.660Z,15.48
2023-05-04T07:20:17.239Z,15.82
2023-05-04T07:22:47.131Z,15.76
2023-05-04T07:25:17.057Z,15.54
2023-05-04T07:27:46.755Z,16.12
2023-05-04T07:30:16.787Z,16.91
2023-05-04T07:32:46.693Z,16.64
2023-05-04T07:35:16.939Z,16.66
2023-05-04T07:37:46.649Z,16.71
2023-05-04T07:40:17.134Z,16.63
2023-05-04T07:42:46.976Z,16.08
2023-05-04T07:45:17.674Z,16.53
2023-05-04T07:47:47.155Z,17.03
2023-05-04T07:50:17.109Z,16.97
2023-05-04T07:52:49.416Z,17.59
2023-05-04T07:55:19.113Z,17.77
2023-05-04T07:57:46.579Z,18.41
2023-05-04T08:00:16.288Z,18.21
2023-05-04T08:02:46.508Z,17.83
2023-05-04T08:05:15.074Z,17.94
2023-05-04T08:07:43.225Z,17.79
2023-05-04T08:10:11.643Z,18.13
2023-05-04T08:12:44.126Z,18.70
2023-05-04T08:15:12.338Z,18.04
2023-05-04T08:17:40.870Z,17.93
2023-05-04T08:20:10.295Z,18.30
2023-05-04T08:22:40.069Z,18.29
2023-05-04T08:25:09.740Z,18.27
2023-05-04T08:27:37.404Z,18.45
2023-05-04T08:30:07.331Z,18.97
2023-05-04T08:32:37.655Z,19.17
2023-05-04T08:35:07.021Z,18.20
2023-05-04T08:37:34.948Z,17.96
2023-05-04T08:40:05.787Z,18.67
2023-05-04T08:42:36.560Z,18.95
2023-05-04T08:45:05.197Z,18.93
2023-05-04T08:47:33.224Z,19.63
2023-05-04T08:50:01.966Z,19.92
2023-05-04T08:52:31.405Z,20.15
2023-05-04T08:54:59.831Z,19.81
2023-05-04T08:57:30.665Z,19.31
2023-05-04T09:00:01.620Z,19.60
2023-05-04T09:02:31.497Z,20.06
2023-05-04T09:05:02.821Z,20.03
2023-05-04T09:07:32.898Z,19.80
2023-05-04T09:10:02.067Z,20.16
2023-05-04T09:12:31.670Z,19.96
2023-05-04T09:15:02.764Z,20.13
2023-05-04T09:17:31.938Z,19.76
2023-05-04T09:20:05.043Z,19.71
2023-05-04T09:22:33.732Z,19.80
2023-05-04T09:25:27.328Z,18.97
2023-05-04T09:27:57.466Z,18.65
2023-05-04T09:30:25.346Z,18.91
2023-05-04T09:32:54.029Z,18.28
2023-05-04T09:35:33.461Z,18.89
2023-05-04T09:38:04.702Z,19.52
2023-05-04T09:40:42.328Z,19.82
2023-05-04T09:43:13.621Z,19.58
2023-05-04T09:45:49.641Z,19.67
2023-05-04T09:48:29.433Z,20.33
2023-05-04T09:51:03.540Z,19.51
2023-05-04T09:53:40.620Z,19.92
2023-05-04T09:56:48.840Z,20.26
2023-05-04T09:59:22.234Z,20.17
2023-05-04T10:01:54.649Z,20.73
2023-05-04T10:04:26.311Z,21.01
2023-05-04T10:06:57.082Z,19.99
2023-05-04T10:09:32.735Z,20.30
2023-05-04T10:12:06.035Z,20.31
2023-05-04T10:14:36.997Z,20.00
2023-05-04T10:18:03.527Z,20.32
2023-05-04T10:21:07.279Z,19.58
2023-05-04T10:24:36.624Z,19.65
2023-05-04T10:27:14.262Z,19.82
2023-05-04T10:29:51.492Z,19.27
2023-05-04T10:32:23.826Z,18.99
2023-05-04T10:35:07.987Z,20.06
2023-05-04T10:37:39.218Z,20.52
2023-05-04T10:40:10.017Z,20.03
2023-05-04T10:42:44.667Z,20.10
2023-05-04T10:45:14.790Z,20.26
2023-05-04T10:47:45.063Z,20.23
2023-05-04T10:50:15.361Z,19.80
2023-05-04T10:52:53.816Z,19.77
2023-05-04T10:55:23.855Z,19.79
2023-05-04T10:57:58.461Z,19.56
2023-05-04T11:00:42.193Z,18.88
2023-05-04T11:03:14.236Z,18.48
2023-05-04T11:05:48.633Z,18.64
2023-05-04T11:08:21.783Z,19.01
2023-05-04T11:11:03.275Z,19.28
2023-05-04T11:13:40.913Z,19.04
2023-05-04T11:16:12.959Z,19.14
2023-05-04T11:18:43.043Z,19.67
2023-05-04T11:21:12.895Z,19.71
2023-05-04T11:23:43.832Z,20.03
2023-05-04T11:26:14.977Z,20.27
2023-05-04T11:28:45.115Z,19.93
2023-05-04T11:31:17.299Z,19.99
2023-05-04T11:33:55.216Z,20.09
2023-05-04T11:36:24.780Z,20.56
2023-05-04T11:38:56.138Z,20.26
2023-05-04T11:41:27.349Z,18.87
2023-05-04T11:43:56.848Z,18.64
2023-05-04T11:46:26.374Z,19.12
2023-05-04T11:48:56.639Z,19.66
2023-05-04T11:51:27.838Z,19.48
2023-05-04T11:53:57.183Z,19.68
2023-05-04T11:56:27.676Z,19.60
2023-05-04T11:59:10.796Z,19.45
2023-05-04T12:01:40.774Z,19.67
2023-05-04T12:04:10.746Z,19.55
2023-05-04T12:06:41.054Z,19.41
2023-05-04T12:09:08.375Z,19.63
2023-05-04T12:11:40.693Z,19.59
2023-05-04T12:14:17.321Z,19.89
2023-05-04T12:16:55.765Z,19.49
2023-05-04T12:19:26.284Z,19.67
2023-05-04T12:21:58.947Z,19.83
2023-05-04T12:24:28.735Z,20.03
2023-05-04T12:26:56.625Z,19.91
2023-05-04T12:29:23.759Z,19.73
2023-05-04T12:31:53.746Z,20.03
2023-05-04T12:34:23.572Z,19.69
2023-05-04T12:36:52.957Z,20.01
2023-05-04T12:39:22.977Z,20.28
2023-05-04T12:41:52.485Z,19.93
2023-05-04T12:44:22.231Z,19.49
2023-05-04T12:46:52.359Z,19.66
2023-05-04T12:49:24.864Z,19.64
2023-05-04T12:51:53.252Z,19.81
2023-05-04T12:54:23.145Z,19.83
2023-05-04T12:56:53.635Z,20.36
2023-05-04T12:59:22.644Z,20.14
2023-05-04T13:01:52.838Z,20.47
2023-05-04T13:04:21.176Z,20.31
2023-05-04T13:06:49.555Z,20.51
2023-05-04T13:09:18.324Z,20.48
2023-05-04T13:11:46.844Z,20.46
2023-05-04T13:14:15.253Z,20.36
2023-05-04T13:16:43.392Z,20.92
2023-05-04T13:19:11.653Z,21.46
2023-05-04T13:21:40.058Z,20.91
2023-05-04T13:24:08.686Z,21.02
2023-05-04T13:26:37.115Z,21.19
2023-05-04T13:29:05.631Z,21.04
2023-05-04T13:31:33.902Z,20.85
2023-05-04T13:34:02.308Z,21.40
2023-05-04T13:36:31.014Z,21.54
2023-05-04T13:39:00.008Z,21.42
2023-05-04T13:41:27.468Z,21.45
2023-05-04T13:43:56.215Z,21.39
2023-05-04T13:46:24.447Z,21.53
2023-05-04T13:48:54.636Z,21.26
2023-05-04T13:51:26.040Z,21.37
2023-05-04T13:53:56.355Z,21.58
2023-05-04T13:56:26.235Z,21.71
2023-05-04T13:58:56.247Z,21.69
2023-05-04T14:01:26.359Z,21.92
2023-05-04T14:03:56.531Z,22.17
2023-05-04T14:06:26.283Z,22.60
2023-05-04T14:08:56.552Z,22.86
2023-05-04T14:11:26.714Z,22.36
2023-05-04T14:13:56.549Z,22.25
2023-05-04T14:16:27.969Z,22.54
2023-05-04T14:18:58.186Z,22.62
2023-05-04T14:21:28.318Z,22.90
2023-05-04T14:23:58.359Z,23.49
2023-05-04T14:26:28.241Z,23.73
2023-05-04T14:28:58.094Z,23.33
2023-05-04T14:31:28.306Z,23.05
2023-05-04T14:33:58.655Z,22.03
2023-05-04T14:36:28.494Z,21.86
2023-05-04T14:38:58.573Z,22.44
2023-05-04T14:41:33.488Z,22.46
2023-05-04T14:44:04.772Z,22.00
2023-05-04T14:46:34.681Z,22.77
2023-05-04T14:49:03.532Z,23.27
2023-05-04T14:51:33.819Z,23.73
2023-05-04T14:54:03.594Z,23.08
2023-05-04T14:56:32.061Z,23.03
2023-05-04T14:59:01.809Z,23.23
2023-05-04T15:01:29.235Z,23.03
2023-05-04T15:03:58.302Z,23.24
2023-05-04T15:06:27.594Z,23.18
2023-05-04T15:08:55.273Z,22.34
2023-05-04T15:11:23.665Z,22.20
2023-05-04T15:13:52.176Z,22.66
2023-05-04T15:16:20.781Z,23.15
2023-05-04T15:18:49.180Z,23.13
2023-05-04T15:21:17.683Z,23.41
2023-05-04T15:23:46.299Z,23.51
2023-05-04T15:26:14.507Z,23.73
2023-05-04T15:28:43.150Z,24.10
2023-05-04T15:31:13.182Z,23.24
2023-05-04T15:33:41.771Z,23.08
2023-05-04T15:36:11.786Z,21.43
2023-05-04T15:38:39.319Z,21.69
2023-05-04T15:41:07.606Z,21.53
2023-05-04T15:43:37.336Z,21.46
2023-05-04T15:46:07.436Z,21.32
2023-05-04T15:48:37.493Z,22.06
2023-05-04T15:51:13.412Z,21.90
2023-05-04T15:53:41.425Z,21.83
2023-05-04T15:56:15.689Z,21.85
2023-05-04T15:58:45.372Z,22.49
2023-05-04T16:01:15.567Z,22.43
2023-05-04T16:03:46.440Z,22.12
2023-05-04T16:06:15.884Z,21.98
2023-05-04T16:08:46.175Z,21.48
2023-05-04T16:11:15.806Z,21.54
2023-05-04T16:13:46.543Z,21.25
2023-05-04T16:16:16.118Z,20.98
2023-05-04T16:18:45.788Z,20.24
2023-05-04T16:21:15.643Z,20.16
2023-05-04T16:23:45.938Z,19.88
2023-05-04T16:26:16.014Z,19.77
2023-05-04T16:28:45.771Z,19.57
2023-05-04T16:31:16.189Z,19.66
2023-05-04T16:33:48.172Z,19.48
2023-05-04T16:36:17.425Z,19.36
2023-05-04T16:38:48.648Z,19.20
2023-05-04T16:41:19.010Z,18.97
2023-05-04T16:43:49.323Z,19.04
2023-05-04T16:46:18.818Z,19.08
2023-05-04T16:48:48.768Z,18.79
2023-05-04T16:51:18.539Z,18.69
2023-05-04T16:53:48.482Z,18.45
2023-05-04T16:56:20.442Z,18.38
2023-05-04T16:58:50.681Z,18.52
2023-05-04T17:01:20.796Z,18.34
2023-05-04T17:03:50.147Z,18.28
2023-05-04T17:06:20.218Z,18.07
2023-05-04T17:08:50.099Z,17.95
2023-05-04T17:11:22.135Z,17.93
2023-05-04T17:13:51.452Z,17.92
2023-05-04T17:16:21.579Z,18.09
2023-05-04T17:18:51.464Z,18.16
2023-05-04T17:21:21.317Z,18.06
2023-05-04T17:23:51.199Z,18.01
2023-05-04T17:26:21.310Z,18.02
2023-05-04T17:28:51.752Z,17.80
2023-05-04T17:31:21.389Z,17.65
2023-05-04T17:33:51.383Z,17.52
2023-05-04T17:36:21.221Z,17.36
2023-05-04T17:38:49.513Z,17.20
2023-05-04T17:41:18.002Z,17.03
2023-05-04T17:43:46.630Z,16.89
2023-05-04T17:46:14.772Z,16.73
2023-05-04T17:48:45.054Z,16.56
2023-05-04T17:51:14.631Z,16.38
2023-05-04T17:53:43.135Z,16.23
2023-05-04T17:56:11.665Z,16.14
2023-05-04T17:58:40.143Z,16.01
2023-05-04T18:01:08.314Z,15.88
2023-05-04T18:03:37.073Z,15.79
2023-05-04T18:06:06.612Z,15.65
2023-05-04T18:08:36.694Z,15.57
2023-05-04T18:11:05.160Z,15.48
2023-05-04T18:13:33.510Z,15.38
2023-05-04T18:16:01.954Z,15.29
2023-05-04T18:18:30.902Z,15.18
2023-05-04T18:21:00.044Z,15.10
2023-05-04T18:23:29.445Z,15.01
2023-05-04T18:25:59.488Z,14.91
2023-05-04T18:28:30.211Z,14.81
2023-05-04T18:30:59.290Z,14.73
2023-05-04T18:33:29.509Z,14.63
2023-05-04T18:35:59.383Z,14.52
2023-05-04T18:38:29.291Z,14.45
2023-05-04T18:40:59.111Z,14.39
2023-05-04T18:43:28.949Z,14.29
2023-05-04T18:46:05.774Z,14.19
2023-05-04T18:48:35.539Z,14.09
2023-05-04T18:51:05.758Z,14.01
2023-05-04T18:53:36.049Z,13.94
2023-05-04T18:56:09.526Z,13.86
2023-05-04T18:58:39.260Z,13.80
2023-05-04T19:01:07.986Z,13.74
2023-05-04T19:03:37.754Z,13.67
2023-05-04T19:06:08.022Z,13.62
2023-05-04T19:08:38.112Z,13.57
2023-05-04T19:11:08.018Z,13.49
2023-05-04T19:13:38.177Z,13.41
2023-05-04T19:16:12.687Z,13.34
2023-05-04T19:18:43.346Z,13.28
2023-05-04T19:21:11.678Z,13.42
2023-05-04T19:23:41.625Z,13.35
2023-05-04T19:26:10.132Z,13.33
2023-05-04T19:28:40.146Z,13.72
2023-05-04T19:31:09.959Z,13.84
2023-05-04T19:33:48.032Z,13.76
2023-05-04T19:36:19.057Z,13.66
2023-05-04T19:38:47.419Z,13.57
2023-05-04T19:41:15.926Z,13.80
2023-05-04T19:43:44.325Z,13.70
2023-05-04T19:46:12.687Z,13.59
2023-05-04T19:48:41.129Z,13.48
2023-05-04T19:51:09.553Z,13.42
2023-05-04T19:53:37.931Z,13.40
2023-05-04T19:56:06.401Z,13.29
2023-05-04T19:58:34.899Z,13.19
2023-05-04T20:01:03.415Z,13.12
2023-05-04T20:03:31.550Z,13.05
2023-05-04T20:05:58.838Z,12.97
2023-05-04T20:08:27.022Z,12.89
2023-05-04T20:10:54.578Z,12.93
2023-05-04T20:13:23.004Z,12.94
2023-05-04T20:15:51.903Z,12.90
2023-05-04T20:18:20.356Z,12.80
2023-05-04T20:20:48.112Z,12.75
2023-05-04T20:23:16.836Z,12.88
2023-05-04T20:25:44.966Z,13.00
2023-05-04T20:28:13.413Z,12.93
2023-05-04T20:30:41.901Z,12.87
2023-05-04T20:33:10.798Z,12.82
2023-05-04T20:35:41.947Z,12.72
2023-05-04T20:38:10.506Z,12.63
2023-05-04T20:40:38.583Z,12.52
2023-05-04T20:43:07.243Z,12.41
2023-05-04T20:45:35.430Z,12.39
2023-05-04T20:48:04.706Z,12.43
2023-05-04T20:50:32.219Z,12.33
2023-05-04T20:53:01.471Z,12.25
2023-05-04T20:55:29.190Z,12.13
2023-05-04T20:57:57.736Z,12.04
2023-05-04T21:00:26.490Z,12.06
2023-05-04T21:02:54.971Z,11.98
2023-05-04T21:05:22.756Z,11.92
2023-05-04T21:07:52.396Z,11.84
2023-05-04T21:10:20.639Z,11.87
2023-05-04T21:12:48.379Z,11.86
2023-05-04T21:15:16.663Z,11.87
2023-05-04T21:17:44.830Z,11.81
2023-05-04T21:20:13.199Z,11.72
2023-05-04T21:22:41.916Z,11.63
2023-05-04T21:25:10.263Z,11.50
2023-05-04T21:27:38.624Z,11.39
2023-05-04T21:30:10.131Z,11.38
2023-05-04T21:32:39.110Z,11.27
2023-05-04T21:35:09.241Z,11.17
2023-05-04T21:37:39.029Z,11.05
2023-05-04T21:40:09.960Z,10.93
2023-05-04T21:42:39.322Z,10.80
2023-05-04T21:45:09.525Z,10.70
2023-05-04T21:47:39.302Z,10.62
2023-05-04T21:50:10.119Z,10.56
2023-05-04T21:52:39.603Z,10.50
2023-05-04T21:55:09.589Z,10.41
2023-05-04T21:57:39.665Z,10.32
2023-05-04T22:00:18.065Z,10.23
2023-05-04T22:02:45.790Z,10.15
2023-05-04T22:05:15.610Z,10.13
2023-05-04T22:07:42.934Z,10.20
2023-05-04T22:10:12.929Z,10.26
2023-05-04T22:12:42.666Z,10.34
2023-05-04T22:15:12.968Z,10.31
2023-05-04T22:17:42.455Z,10.36
2023-05-04T22:20:13.672Z,10.33
2023-05-04T22:22:42.898Z,10.30
2023-05-04T22:25:12.910Z,10.24
2023-05-04T22:27:42.752Z,10.23
2023-05-04T22:30:13.590Z,10.21
2023-05-04T22:32:42.570Z,10.20
2023-05-04T22:35:12.383Z,10.19
2023-05-04T22:37:42.070Z,10.10
2023-05-04T22:40:12.127Z,10.05
2023-05-04T22:42:44.976Z,10.05
2023-05-04T22:45:15.768Z,10.09
2023-05-04T22:47:46.983Z,10.04
2023-05-04T22:50:17.639Z,9.89
2023-05-04T22:52:46.597Z,9.78
2023-05-04T22:55:16.546Z,9.76
2023-05-04T22:57:46.458Z,9.70
2023-05-04T23:00:17.315Z,9.70
2023-05-04T23:02:47.207Z,9.66
2023-05-04T23:05:16.661Z,9.61
2023-05-04T23:07:45.066Z,9.56
2023-05-04T23:10:13.357Z,9.60
2023-05-04T23:12:41.800Z,9.54
2023-05-04T23:15:10.527Z,9.48
2023-05-04T23:17:38.974Z,9.43
2023-05-04T23:20:09.685Z,9.53
2023-05-04T23:22:38.569Z,9.53
2023-05-04T23:25:07.611Z,9.55
2023-05-04T23:27:35.368Z,9.51
2023-05-04T23:30:04.682Z,9.46
2023-05-04T23:32:32.232Z,9.36
2023-05-04T23:35:00.699Z,9.42
2023-05-04T23:37:33.522Z,9.37
2023-05-04T23:40:01.838Z,9.41
2023-05-04T23:42:31.822Z,9.33
2023-05-04T23:47:31.320Z,9.33
2023-05-04T23:50:01.367Z,9.32
2023-05-04T23:52:31.659Z,9.20
2023-05-04T23:55:01.006Z,9.23
2023-05-04T23:57:30.914Z,9.41
